Timeline UpdatesTrip UpdatesNews PostsPvt PostsTravel TipsAdmin PostsConv PostsFollowed PostsChat RequestsBlog PostsPNR Posts

Disclaimer
Search
 
 
Fri Aug 1, 2014 11:16:25 ISTHomeTrainsΣChainsAtlasPNRForumGalleryNewsFAQTripsMembersLoginFeedback
No Recent News for this Train
Other Trains in the News **new
Latest...
Will arrive MAQ at 11:05 w.e.f 1st july 2012
Sat Jun 23, 2012 (11:41PM)
⇐ Return Journey: Train# 16348

16347/Trivandrum - Mangalore Express

Feb 28 2014 (1:41PM)
Change Departure Station:
Change Arrival Station:
Post a Train Travel TipPost a Train Travel Tip **new
Post a Comment/Question/Picture/VideoPost a Comment/Question/Picture/Video
Pantry/Catering
✕ NO Pantry Car
✓ Catering Avbl
RSA - Rake Sharing
RSA with 12619/12620 Matsyagandha Express
Rake/Coach Composition
Loco-SLR-UR-UR-S1- -S11-B1-B2-B3-A1-UR-UR-SLR
Loco
ED WDM-3D which brings 16650 parasuram takes this train back
News    PNR    Forum    Time-Table    Availability    Fare Chart    Map    Arr/Dep History    Trips    Gallery    ΣChains    X/O    Timeline    
Travel Time: 14h 15m    48 halts    Distance: 632 km    Avg Speed: 44 km/hr
Type: Mail/Express
Zone: SR/Southern
Departs @ 20:40 (Avg 2m late)
Platform# 2
SMTWTFS
Trivandrum Central/TVC 
Arrives @ 10:55 +1 night (Avg 11m late)
Platform# 1
SMTWTFS
Mangalore Central/MAQ 

48 halts. 120 intermediate Stations between Trivandrum Central and Mangalore Central

Show ALL intermediate Stations  Show Old Time-Table

#CodeStation NameX/OArrivesAvgDepartsAvgHaltPFDay#KmSpeedElevZoneAddress
1TVC»Trivandrum Central (5)»  -20:40+2210.03512mSRThiruvananthapuram 695001, Kerala
2TVPThiruvananthapuram Pettah (2)X  20:44+020:45+01m212.47518mSRTrivandrum Ph: 04712470181, Kerala
3CRYChirayinkeezhu (2)  21:06+021:07+01m2128.74619mSRChirayinkeezhu, Kerala
4KVUKadakavur (3)X  21:11+621:12+71m--131.84620mSRKadakkavoor, Kerala
5VAKVarkala Sivagiri (3)  21:24+621:25+61m--141.06152mSREdava Kappil Road, Kerala
6PVUParavur (3)  21:36+821:37+81m--152.25318mSRParavoor, Kerala
7MYYMayyanad (2)  21:41+921:42+91m--155.74121mSRMayyanad, Kerala
8QLNKollam Junction (6)  21:55+622:00+75m2164.67316mSRKollam 0474-2746194, Kerala
9STKTSasthamkotta (2)X22:16+1522:17+151m--184.1650mSRKollam Dist, Kerala
10KPYKarunagappalli (2)  22:24+2022:25+221m1191.74112mSRKollam Dist, Kerala
11KYJKayamkulam Junction (5)  22:45+1922:47+192m--1105.45811mSRAlappuzha Ph;0479-2442042, Kerala
12MVLKMavelikara (3)  22:55+2022:57+202m21113.16313mSRMavelikkara Ph: 0479-2302249, Kerala
13CNGRChengannur (3)  23:09+1823:10+191m31125.6606mSRPh: 0479-2452340, Kerala
14TRVLTiruvalla (2)  23:19+2223:20+231m--1134.75227mSRPh: 0469-2601314, Kerala
15CGYChanganassery (3)  23:29+2723:30+281m--1142.64711mSRPh: 0481- 2420108, Kerala
16KTYMKottayam (3)  23:53+2323:58+235m--1160.46015mSRTel: 0481 2563535, Kerala
17PVRDPiravom Road  00:29+3100:30+321m--2191.63112mSRKottayam, Kerala
18ERNErnakulam Town (North) (2)X  01:25+1501:30+155m12220.4509mSRTel: 0484 2395198, Kerala
19AWYAluva (3)X  01:50+1901:53+183m32237.26112mSRPh: 0484-2624141, Kerala
20AFKAngamaly for Kalady (3)X  02:02+2002:03+201m--2246.45716mSRPhone: 0484-2452340, Kerala
21CKIChalakkudy (3)  02:19+1902:20+191m22261.6439mSRPh: 0480- 2701368, Kerala
22IJKIrinjalakkuda (2)X  02:29+2102:30+221m--2268.14418mSRKalletumkara, Kerala
23TCRThrissur (4)X  03:02+1203:05+123m22291.8706mSRThrissur Tel: 0487 2423150, Kerala
24WKIWadakkanchery (2)X  03:19+1803:20+181m22308.22540mSRWadackanchery, Kerala
25SRRShoranur Junction (7)X  04:00+1004:10+2110m--2324.85026mSRShoranur ph.no 0466-2222913, Kerala
26PTBPattambi (2)  04:24+2204:25+221m--2336.35821mSRPattambi, Kerala
27KTUKuttippuram (2)  04:44+2304:45+241m--2354.85617mSRKuttippuram, Kerala
28TIRTirur (3)  05:01+2305:03+232m12369.8609mSRTel: 0494 2422240, Kerala
29TATanur (3)  05:11+2805:12+281m--2377.88111mSRMalappuram, Kerala
30PGIParappangadi (2)  05:18+3105:20+312m--2385.910019mSRParappanangadi, Kerala
31VLIVallikunnu (2)  05:23-05:25-2m--2390.93813mSRVallikkunnu, Kerala
32FKFerok (2)  05:41+2905:43+292m--2401.12719mSRFeroke, Kerala
33CLTKozhikode Main (4)X  06:05+2306:10+245m32411.16611mSRCalicut Tel: 0495 2701234, Kerala
34QLDKoyilandy (3)X  06:32+2706:33+281m--2435.47711mSRQuilandi, Kerala
35BDJVadakara (2)  06:50+3106:52+312m22457.39711mSRCalicut / Station Ph No : 0496-2524254, Kerala
36MAHEMahe (2)  07:00+3407:02+342m--2470.26916mSRMahe, Puducherry
37TLYThalassery (2)  07:10+3707:12+372m--2479.4339mSRKannur, Kerala
38CANKannur Main (3)  07:50+2107:55+265m12500.16714mSRKannur Tel: 0497 2705555, Kerala
39KPQKannapuram (2)X  08:08+3208:10+312m12514.6569mSRKannur District, Kerala
40PAZPayangadi (2)  08:18+3108:20+302m12522.18712mSRKannur District, Kerala
41PAYPayyanur (3)X  08:28+3108:30+312m--2533.81240mSRKannur District, Kerala
42TKQTrikkarippur  08:33-08:35-2m--2540.06413mSRKasargod district, Kerala
43CHVCharvattur (3)X  08:43+3608:45+352m--2548.55314mSRKasaragod district, Kerala
44NLENileshwar (2)  08:51+4108:53+412m--2553.85612mSRNileswaram, Kerala
45KZEKanhangad (3)  09:03+3909:05+392m--2563.08815mSRKanhangad, Kerala
46BFRBekal Fort (2)X  09:11-09:13-2m--2571.85811mSRPallikere, Kerala
47KQKKottikkulam (2)  09:18+4309:20+422m22576.74425mSRBekal, Kerala
48KGQKasaragod (3)X  09:33+3809:35+372m22586.210518mSRTel: 04994 220800, Kerala
49KMQKumbala (2)  09:42+4009:44+392m--2598.42823mSRKumbla, Kerala
50MAQ•Mangalore Central (4)•  10:55+11-12631.9-14mSRMangalore 575001, Karnataka
Scroll to Top
Scroll to Bottom